Terminal Aerodrome Forecast
Issued by NWS

Home | Current Version | Previous Version | Graphics & Text | Print | Product List | Glossary On
Versions: 1 2 3 4 5 6 7 8 9 10 11 12 13 14 15 16 17
420
FTUS43 KMPX 190733 AAA
TAFRNH
TAF AMD
KRNH 190733Z 1908/2006 00000KT 1/2SM FG VV004
     FM191400 23006KT P6SM SKC
     FM200000 VRB02KT P6SM SKC=

USA.gov is the U.S. government's official web portal to all federal, state and local government web resources and services.